createdAt,value
2022-09-24T00:02:24.503Z,96489.25
2022-09-24T00:04:51.100Z,96581.13
2022-09-24T00:07:17.656Z,96612.31
2022-09-24T00:09:44.261Z,96538.75
2022-09-24T00:12:13.355Z,96678.19
2022-09-24T00:14:40.110Z,96603.78
2022-09-24T00:17:06.657Z,96615.03
2022-09-24T00:19:33.252Z,96379.84
2022-09-24T00:21:59.863Z,96542.16
2022-09-24T00:24:45.069Z,96584.22
2022-09-24T00:27:11.711Z,96590.38
2022-09-24T00:29:38.306Z,96633.16
2022-09-24T00:32:05.268Z,96633.78
2022-09-24T00:34:31.850Z,96666.66
2022-09-24T00:36:59.268Z,96572.66
2022-09-24T00:39:25.857Z,96569.38
2022-09-24T00:41:52.410Z,96590.66
2022-09-24T00:44:40.947Z,96644.72
2022-09-24T00:47:16.656Z,96631.06
2022-09-24T00:49:43.287Z,96575.63
2022-09-24T00:52:09.924Z,96610.38
2022-09-24T00:54:37.377Z,96529.97
2022-09-24T00:57:04.173Z,96500.91
2022-09-24T00:59:30.777Z,96412.97
2022-09-24T01:01:59.385Z,96483.72
2022-09-24T01:04:27.206Z,96537.91
2022-09-24T01:06:53.780Z,96526.69
2022-09-24T01:09:20.424Z,96521.34
2022-09-24T01:11:49.921Z,96606.34
2022-09-24T01:14:54.619Z,96600.59
2022-09-24T01:17:49.798Z,96607.47
2022-09-24T01:21:06.312Z,96609.22
2022-09-24T01:23:49.230Z,96599.91
2022-09-24T01:26:22.002Z,96603.28
2022-09-24T01:29:02.709Z,96599.78
2022-09-24T01:31:32.170Z,96530.66
2022-09-24T01:33:59.683Z,96536.78
2022-09-24T01:36:26.246Z,96433.22
2022-09-24T01:38:52.848Z,96505.09
2022-09-24T01:41:19.452Z,96473.56
2022-09-24T01:43:46.025Z,96565.75
2022-09-24T01:46:13.059Z,96556.44
2022-09-24T01:48:40.256Z,96548.31
2022-09-24T01:51:23.618Z,96607.19
2022-09-24T01:53:53.835Z,96351.91
2022-09-24T01:56:35.234Z,96510.41
2022-09-24T01:59:10.343Z,96548.03
2022-09-24T02:01:40.826Z,96530.03
2022-09-24T02:04:12.390Z,96497.94
2022-09-24T02:07:04.731Z,96574.53
2022-09-24T02:09:43.007Z,96489.91
2022-09-24T02:12:20.993Z,96584.09
2022-09-24T02:14:54.426Z,96568.09
2022-09-24T02:17:24.665Z,96538.19
2022-09-24T02:19:51.271Z,96429.91
2022-09-24T02:22:17.855Z,96520.25
2022-09-24T02:24:44.427Z,96596.09
2022-09-24T02:27:10.982Z,96254.94
2022-09-24T02:29:37.543Z,96366.00
2022-09-24T02:32:04.130Z,96435.66
2022-09-24T02:34:36.938Z,96576.19
2022-09-24T02:37:08.866Z,96215.50
2022-09-24T02:39:36.320Z,96581.41
2022-09-24T02:42:05.604Z,96521.44
2022-09-24T02:44:33.017Z,96532.94
2022-09-24T02:46:59.899Z,96503.88
2022-09-24T02:49:26.643Z,96475.75
2022-09-24T02:51:53.241Z,96499.13
2022-09-24T02:54:19.944Z,96462.13
2022-09-24T02:56:46.501Z,96422.28
2022-09-24T02:59:13.091Z,96489.69
2022-09-24T03:01:39.792Z,96483.94
2022-09-24T03:04:06.813Z,96492.03
2022-09-24T03:06:33.489Z,96482.56
2022-09-24T03:09:03.398Z,96426.66
2022-09-24T03:11:31.481Z,96433.91
2022-09-24T03:13:58.099Z,96554.41
2022-09-24T03:16:24.784Z,96520.00
2022-09-24T03:18:51.405Z,96462.16
2022-09-24T03:21:19.800Z,96465.53
2022-09-24T03:23:46.647Z,96470.44
2022-09-24T03:26:13.211Z,96375.03
2022-09-24T03:28:39.796Z,96414.16
2022-09-24T03:31:06.518Z,96499.84
2022-09-24T03:33:37.878Z,96482.34
2022-09-24T03:36:08.253Z,96524.19
2022-09-24T03:38:35.181Z,96457.75
2022-09-24T03:41:02.030Z,96431.63
2022-09-24T03:43:28.756Z,96429.75
2022-09-24T03:45:55.442Z,96438.25
2022-09-24T03:48:22.547Z,96478.91
2022-09-24T03:50:49.369Z,96508.09
2022-09-24T03:53:16.345Z,96468.72
2022-09-24T03:55:47.202Z,96295.66
2022-09-24T03:58:14.913Z,96369.72
2022-09-24T04:00:42.364Z,96524.25
2022-09-24T04:03:09.160Z,96425.44
2022-09-24T04:05:36.174Z,96399.63
2022-09-24T04:08:03.075Z,96475.16
2022-09-24T04:10:29.761Z,96464.41
2022-09-24T04:12:56.370Z,96519.78
2022-09-24T04:15:23.467Z,96199.44
2022-09-24T04:17:51.695Z,96374.91
2022-09-24T04:20:22.311Z,96429.03
2022-09-24T04:22:53.894Z,96404.69
2022-09-24T04:25:20.784Z,96467.72
2022-09-24T04:27:47.574Z,96368.53
2022-09-24T04:30:14.545Z,96461.50
2022-09-24T04:32:41.571Z,96347.19
2022-09-24T04:35:08.753Z,96409.16
2022-09-24T04:37:35.576Z,96371.56
2022-09-24T04:40:03.755Z,96423.66
2022-09-24T04:42:30.394Z,96433.91
2022-09-24T04:44:56.967Z,96414.16
2022-09-24T04:47:26.338Z,96467.66
2022-09-24T04:49:53.012Z,96424.13
2022-09-24T04:52:19.590Z,96455.19
2022-09-24T04:54:47.297Z,96491.13
2022-09-24T04:57:14.765Z,96389.53
2022-09-24T04:59:41.673Z,96465.97
2022-09-24T05:02:09.780Z,96350.81
2022-09-24T05:04:37.368Z,96526.56
2022-09-24T05:07:04.372Z,96422.13
2022-09-24T05:09:33.757Z,96371.16
2022-09-24T05:12:00.378Z,96486.09
2022-09-24T05:14:27.045Z,96465.31
2022-09-24T05:16:53.813Z,96428.22
2022-09-24T05:19:21.175Z,96451.00
2022-09-24T05:21:47.797Z,96507.09
2022-09-24T05:24:14.394Z,96417.03
2022-09-24T05:26:59.558Z,96252.50
2022-09-24T05:29:26.219Z,96452.63
2022-09-24T05:31:52.878Z,96400.50
2022-09-24T05:34:19.544Z,96507.81
2022-09-24T05:36:46.167Z,96458.00
2022-09-24T05:39:15.537Z,96433.59
2022-09-24T05:41:43.592Z,96446.41
2022-09-24T05:44:11.301Z,96489.59
2022-09-24T05:46:38.310Z,96430.88
2022-09-24T05:49:05.039Z,96451.06
2022-09-24T05:51:31.673Z,96425.84
2022-09-24T05:53:58.262Z,96432.69
2022-09-24T05:56:24.903Z,96471.88
2022-09-24T05:58:51.503Z,96455.53
2022-09-24T06:01:18.216Z,96423.09
2022-09-24T06:03:44.815Z,96418.16
2022-09-24T06:06:12.123Z,96479.13
2022-09-24T06:08:38.795Z,96441.84
2022-09-24T06:11:06.654Z,96395.75
2022-09-24T06:13:35.037Z,96412.94
2022-09-24T06:16:07.518Z,96421.47
2022-09-24T06:18:35.167Z,96464.38
2022-09-24T06:21:03.776Z,96456.13
2022-09-24T06:23:31.061Z,96496.69
2022-09-24T06:25:58.252Z,96462.09
2022-09-24T06:28:27.554Z,96352.16
2022-09-24T06:30:54.301Z,96466.06
2022-09-24T06:33:21.165Z,96420.72
2022-09-24T06:35:48.453Z,96381.75
2022-09-24T06:38:16.376Z,96451.47
2022-09-24T06:40:43.730Z,96462.50
2022-09-24T06:43:10.876Z,96282.56
2022-09-24T06:45:37.541Z,96360.13
2022-09-24T06:48:04.821Z,96456.84
2022-09-24T06:50:32.219Z,96438.09
2022-09-24T06:52:58.803Z,96289.81
2022-09-24T06:55:25.441Z,96358.97
2022-09-24T06:58:04.882Z,96458.22
2022-09-24T07:00:31.674Z,96465.44
2022-09-24T07:02:58.283Z,96422.94
2022-09-24T07:05:24.983Z,96455.66
2022-09-24T07:07:51.626Z,96414.66
2022-09-24T07:10:25.810Z,96447.22
2022-09-24T07:12:52.415Z,96444.59
2022-09-24T07:15:19.022Z,96377.81
2022-09-24T07:17:45.707Z,96503.00
2022-09-24T07:20:12.407Z,96498.50
2022-09-24T07:22:43.118Z,96284.63
2022-09-24T07:25:15.020Z,96459.81
2022-09-24T07:28:28.454Z,96522.00
2022-09-24T07:30:59.548Z,96496.88
2022-09-24T07:33:26.293Z,96509.00
2022-09-24T07:35:52.847Z,96243.56
2022-09-24T07:38:20.012Z,96480.41
2022-09-24T07:40:46.670Z,96436.28
2022-09-24T07:43:14.307Z,96462.59
2022-09-24T07:45:41.584Z,96400.59
2022-09-24T07:48:09.048Z,96488.47
2022-09-24T07:50:40.341Z,96468.78
2022-09-24T07:53:06.983Z,96444.31
2022-09-24T07:55:39.437Z,96442.13
2022-09-24T07:58:22.358Z,96514.50
2022-09-24T08:00:49.087Z,96448.66
2022-09-24T08:03:15.659Z,96405.63
2022-09-24T08:05:45.335Z,96448.41
2022-09-24T08:08:12.104Z,96443.47
2022-09-24T08:10:38.669Z,96328.25
2022-09-24T08:13:05.255Z,96408.34
2022-09-24T08:15:31.842Z,96435.38
2022-09-24T08:18:04.780Z,96358.63
2022-09-24T08:20:32.450Z,96404.38
2022-09-24T08:23:03.142Z,96409.69
2022-09-24T08:25:29.846Z,96407.75
2022-09-24T08:27:56.557Z,96457.09
2022-09-24T08:30:23.151Z,96399.84
2022-09-24T08:32:49.878Z,96459.22
2022-09-24T08:35:16.744Z,96407.19
2022-09-24T08:37:43.374Z,96387.84
2022-09-24T08:40:23.916Z,96451.47
2022-09-24T08:43:12.336Z,96473.16
2022-09-24T08:46:05.558Z,96438.97
2022-09-24T08:48:34.425Z,96317.09
2022-09-24T08:51:03.377Z,96330.94
2022-09-24T08:53:42.680Z,96455.16
2022-09-24T08:56:09.275Z,96375.19
2022-09-24T08:58:44.941Z,96369.69
2022-09-24T09:01:11.514Z,96444.44
2022-09-24T09:04:05.107Z,96440.03
2022-09-24T09:06:43.903Z,96445.78
2022-09-24T09:09:18.308Z,96434.25
2022-09-24T09:11:47.799Z,96444.06
2022-09-24T09:14:18.709Z,96437.69
2022-09-24T09:16:57.571Z,96386.59
2022-09-24T09:19:26.842Z,96406.84
2022-09-24T09:21:57.028Z,96361.78
2022-09-24T09:25:03.506Z,96403.75
2022-09-24T09:27:31.004Z,96338.22
2022-09-24T09:29:59.210Z,96368.56
2022-09-24T09:33:03.312Z,96442.38
2022-09-24T09:35:43.292Z,96395.75
2022-09-24T09:38:12.964Z,96439.94
2022-09-24T09:40:44.095Z,96382.97
2022-09-24T09:43:12.773Z,96313.97
2022-09-24T09:45:56.316Z,96394.59
2022-09-24T09:48:24.241Z,96346.50
2022-09-24T09:50:51.398Z,96379.03
2022-09-24T09:53:25.018Z,96444.25
2022-09-24T09:55:56.063Z,96385.50
2022-09-24T09:58:24.587Z,96392.22
2022-09-24T10:00:51.217Z,96391.16
2022-09-24T10:03:26.199Z,96365.53
2022-09-24T10:05:58.592Z,96356.75
2022-09-24T10:08:26.492Z,96358.69
2022-09-24T10:10:57.458Z,96429.59
2022-09-24T10:13:24.351Z,96440.28
2022-09-24T10:15:51.698Z,96453.94
2022-09-24T10:18:23.051Z,96448.63
2022-09-24T10:20:49.895Z,96407.09
2022-09-24T10:23:21.188Z,96394.53
2022-09-24T10:25:52.379Z,96420.13
2022-09-24T10:28:38.365Z,96440.09
2022-09-24T10:31:12.518Z,96400.81
2022-09-24T10:33:40.503Z,96197.06
2022-09-24T10:36:13.525Z,96362.00
2022-09-24T10:38:40.094Z,96409.13
2022-09-24T10:41:27.590Z,96444.25
2022-09-24T10:43:54.950Z,96177.09
2022-09-24T10:46:28.690Z,96429.91
2022-09-24T10:49:46.449Z,96436.72
2022-09-24T10:52:30.450Z,96434.66
2022-09-24T10:55:15.850Z,96430.03
2022-09-24T10:58:03.018Z,96349.44
2022-09-24T11:00:41.193Z,96389.38
2022-09-24T11:03:26.085Z,96445.03
2022-09-24T11:05:54.025Z,96387.94
2022-09-24T11:08:52.905Z,96443.19
2022-09-24T11:11:31.947Z,96439.44
2022-09-24T11:14:20.913Z,96443.31
2022-09-24T11:17:03.254Z,96394.03
2022-09-24T11:19:36.707Z,96435.69
2022-09-24T11:22:42.219Z,96453.03
2022-09-24T11:25:24.545Z,96441.16
2022-09-24T11:28:13.321Z,96375.13
2022-09-24T11:31:13.916Z,96437.28
2022-09-24T11:33:43.583Z,96441.28
2022-09-24T11:36:22.320Z,96443.69
2022-09-24T11:38:48.797Z,96439.63
2022-09-24T11:41:53.041Z,96444.28
2022-09-24T11:44:32.998Z,96438.19
2022-09-24T11:47:27.459Z,96436.19
2022-09-24T11:50:33.573Z,96435.97
2022-09-24T11:53:03.015Z,96342.06
2022-09-24T11:55:34.995Z,96342.94
2022-09-24T11:58:18.131Z,96428.16
2022-09-24T12:00:49.510Z,96354.28
2022-09-24T12:04:05.471Z,96423.47
2022-09-24T12:06:35.866Z,96347.16
2022-09-24T12:09:39.852Z,96415.88
2022-09-24T12:12:09.112Z,96351.75
2022-09-24T12:15:01.597Z,96417.75
2022-09-24T12:17:49.128Z,96409.28
2022-09-24T12:20:45.265Z,96407.88
2022-09-24T12:23:13.400Z,96362.09
2022-09-24T12:25:45.299Z,96081.13
2022-09-24T12:28:35.755Z,96389.53
2022-09-24T12:31:21.751Z,96369.16
2022-09-24T12:34:01.618Z,96391.34
2022-09-24T12:36:31.126Z,96400.22
2022-09-24T12:39:02.705Z,96338.66
2022-09-24T12:41:33.103Z,96318.72
2022-09-24T12:44:11.805Z,96405.66
2022-09-24T12:46:43.076Z,96248.91
2022-09-24T12:49:24.947Z,96395.34
2022-09-24T12:51:59.627Z,96394.97
2022-09-24T12:54:36.759Z,96368.72
2022-09-24T12:57:26.424Z,96406.47
2022-09-24T12:59:56.966Z,96392.16
2022-09-24T13:02:33.552Z,96371.94
2022-09-24T13:05:03.562Z,96404.22
2022-09-24T13:07:37.217Z,96398.38
2022-09-24T13:10:17.343Z,96373.75
2022-09-24T13:12:44.782Z,96348.56
2022-09-24T13:15:28.143Z,96390.94
2022-09-24T13:18:07.017Z,96389.31
2022-09-24T13:20:33.639Z,96362.69
2022-09-24T13:23:31.523Z,96334.81
2022-09-24T13:25:59.234Z,96231.72
2022-09-24T13:28:37.815Z,96343.69
2022-09-24T13:31:25.958Z,96337.59
2022-09-24T13:34:18.946Z,96288.97
2022-09-24T13:37:04.477Z,96302.06
2022-09-24T13:39:35.914Z,96343.41
2022-09-24T13:42:33.235Z,96311.88
2022-09-24T13:45:03.326Z,96344.88
2022-09-24T13:47:43.723Z,96378.78
2022-09-24T13:50:16.729Z,96338.16
2022-09-24T13:52:53.724Z,96246.91
2022-09-24T13:55:34.901Z,96346.25
2022-09-24T13:58:01.477Z,96325.00
2022-09-24T14:00:29.286Z,96280.66
2022-09-24T14:03:03.550Z,96373.78
2022-09-24T14:05:39.328Z,96345.06
2022-09-24T14:08:12.430Z,96367.31
2022-09-24T14:10:40.060Z,96295.38
2022-09-24T14:13:21.801Z,96171.09
2022-09-24T14:15:58.610Z,96318.25
2022-09-24T14:18:26.668Z,96338.72
2022-09-24T14:20:57.741Z,96341.09
2022-09-24T14:23:25.099Z,96306.38
2022-09-24T14:25:51.693Z,96306.41
2022-09-24T14:28:18.293Z,96328.66
2022-09-24T14:31:03.080Z,96329.25
2022-09-24T14:33:31.230Z,96350.84
2022-09-24T14:35:57.985Z,96137.69
2022-09-24T14:38:35.340Z,96335.50
2022-09-24T14:41:16.058Z,96326.22
2022-09-24T14:43:53.807Z,96343.13
2022-09-24T14:46:27.961Z,96351.91
2022-09-24T14:49:27.745Z,96372.50
2022-09-24T14:52:04.187Z,96328.53
2022-09-24T14:54:38.117Z,96313.94
2022-09-24T14:57:19.880Z,96375.84
2022-09-24T14:59:46.777Z,96262.63
2022-09-24T15:02:29.711Z,96372.28
2022-09-24T15:05:03.251Z,96307.81
2022-09-24T15:07:32.595Z,96339.47
2022-09-24T15:10:00.020Z,96290.06
2022-09-24T15:12:31.093Z,96295.69
2022-09-24T15:15:00.010Z,96145.53
2022-09-24T15:17:34.191Z,96310.00
2022-09-24T15:20:01.146Z,96315.38
2022-09-24T15:22:28.981Z,96321.19
2022-09-24T15:25:01.161Z,96362.75
2022-09-24T15:27:31.203Z,96324.09
2022-09-24T15:30:01.276Z,96328.47
2022-09-24T15:32:29.148Z,96310.88
2022-09-24T15:34:57.790Z,96288.69
2022-09-24T15:37:25.860Z,96299.56
2022-09-24T15:39:53.334Z,96297.97
2022-09-24T15:42:21.608Z,96259.63
2022-09-24T15:44:48.201Z,96230.63
2022-09-24T15:47:18.927Z,96292.56
2022-09-24T15:49:45.590Z,96305.81
2022-09-24T15:52:24.207Z,96357.66
2022-09-24T15:54:51.726Z,95982.22
2022-09-24T15:57:18.436Z,96166.50
2022-09-24T15:59:45.038Z,96336.50
2022-09-24T16:02:32.632Z,96362.66
2022-09-24T16:05:03.545Z,96140.78
2022-09-24T16:07:30.618Z,96351.63
2022-09-24T16:09:57.236Z,96348.75
2022-09-24T16:12:28.030Z,96225.50
2022-09-24T16:14:58.995Z,96321.06
2022-09-24T16:17:26.181Z,96370.50
2022-09-24T16:19:52.911Z,96306.78
2022-09-24T16:22:20.689Z,96343.91
2022-09-24T16:24:47.517Z,96335.53
2022-09-24T16:27:14.123Z,96298.50
2022-09-24T16:29:40.738Z,96317.16
2022-09-24T16:32:07.342Z,96345.91
2022-09-24T16:34:34.528Z,96221.16
2022-09-24T16:37:01.146Z,96337.59
2022-09-24T16:39:27.736Z,96163.50
2022-09-24T16:41:54.518Z,96353.63
2022-09-24T16:44:21.227Z,96304.03
2022-09-24T16:46:47.842Z,96227.47
2022-09-24T16:49:15.247Z,96343.38
2022-09-24T16:51:41.996Z,96329.19
2022-09-24T16:54:08.687Z,96249.41
2022-09-24T16:56:35.306Z,96322.59
2022-09-24T16:59:01.962Z,96329.56
2022-09-24T17:01:28.677Z,96338.50
2022-09-24T17:03:56.183Z,96362.75
2022-09-24T17:06:24.469Z,96377.38
2022-09-24T17:09:11.481Z,96135.09
2022-09-24T17:11:40.241Z,96333.13
2022-09-24T17:14:07.985Z,96375.63
2022-09-24T17:16:39.289Z,96288.75
2022-09-24T17:19:08.007Z,96358.66
2022-09-24T17:21:35.473Z,96070.63
2022-09-24T17:24:02.338Z,96366.44
2022-09-24T17:26:28.970Z,96288.28
2022-09-24T17:28:55.749Z,96335.47
2022-09-24T17:31:23.658Z,96281.59
2022-09-24T17:34:01.317Z,96327.84
2022-09-24T17:36:28.993Z,96385.41
2022-09-24T17:38:56.603Z,96316.38
2022-09-24T17:41:23.469Z,96344.50
2022-09-24T17:43:50.043Z,96350.50
2022-09-24T17:46:18.380Z,96351.94
2022-09-24T17:48:46.067Z,96337.03
2022-09-24T17:51:23.456Z,96291.72
2022-09-24T17:53:51.380Z,96299.97
2022-09-24T17:56:18.127Z,96324.50
2022-09-24T17:58:46.931Z,96352.66
2022-09-24T18:01:24.658Z,96281.72
2022-09-24T18:03:55.282Z,96370.78
2022-09-24T18:06:22.158Z,96247.19
2022-09-24T18:08:48.755Z,96371.88
2022-09-24T18:11:20.124Z,96298.28
2022-09-24T18:13:53.114Z,96381.53
2022-09-24T18:16:20.535Z,96313.81
2022-09-24T18:18:49.217Z,96374.91
2022-09-24T18:21:16.483Z,96378.13
2022-09-24T18:23:43.078Z,96377.75
2022-09-24T18:26:16.933Z,96356.94
2022-09-24T18:28:49.520Z,96299.44
2022-09-24T18:31:16.559Z,96173.31
2022-09-24T18:33:43.915Z,96172.44
2022-09-24T18:36:14.467Z,96335.97
2022-09-24T18:38:41.123Z,96226.50
2022-09-24T18:41:15.599Z,96196.22
2022-09-24T18:43:42.273Z,96284.09
2022-09-24T18:46:11.348Z,96337.84
2022-09-24T18:48:38.870Z,96306.81
2022-09-24T18:51:05.664Z,96331.00
2022-09-24T18:53:32.277Z,96255.91
2022-09-24T18:55:59.515Z,96411.81
2022-09-24T18:58:26.147Z,96339.03
2022-09-24T19:01:19.317Z,96402.94
2022-09-24T19:03:46.020Z,96262.91
2022-09-24T19:06:13.149Z,96292.72
2022-09-24T19:08:40.042Z,96385.88
2022-09-24T19:11:09.919Z,96360.38
2022-09-24T19:13:51.656Z,96351.06
2022-09-24T19:16:18.946Z,96328.81
2022-09-24T19:18:45.655Z,96342.16
2022-09-24T19:21:14.074Z,96320.28
2022-09-24T19:23:46.185Z,96352.63
2022-09-24T19:26:14.447Z,96389.19
2022-09-24T19:28:41.323Z,96062.38
2022-09-24T19:31:25.020Z,96282.03
2022-09-24T19:33:52.352Z,96328.31
2022-09-24T19:36:18.990Z,96318.56
2022-09-24T19:38:45.740Z,96169.25
2022-09-24T19:41:13.535Z,96361.66
2022-09-24T19:43:41.053Z,96300.75
2022-09-24T19:46:08.663Z,96302.00
2022-09-24T19:48:43.259Z,96322.63
2022-09-24T19:51:20.306Z,96336.13
2022-09-24T19:53:51.315Z,96274.38
2022-09-24T19:56:19.607Z,96305.13
2022-09-24T19:58:47.150Z,96306.66
2022-09-24T20:01:17.375Z,96254.84
2022-09-24T20:03:44.508Z,96313.31
2022-09-24T20:06:16.148Z,96216.72
2022-09-24T20:08:42.847Z,96320.56
2022-09-24T20:11:11.415Z,96329.88
2022-09-24T20:13:46.406Z,96311.63
2022-09-24T20:16:20.257Z,96374.19
2022-09-24T20:18:47.843Z,96310.81
2022-09-24T20:21:16.285Z,96232.44
2022-09-24T20:23:43.236Z,96295.09
2022-09-24T20:26:29.338Z,96321.31
2022-09-24T20:28:56.255Z,96350.78
2022-09-24T20:31:22.917Z,96314.09
2022-09-24T20:33:49.632Z,96252.56
2022-09-24T20:36:20.729Z,96351.13
2022-09-24T20:38:49.955Z,96125.91
2022-09-24T20:41:18.120Z,96324.47
2022-09-24T20:43:45.631Z,96239.56
2022-09-24T20:46:17.439Z,96272.75
2022-09-24T20:48:44.169Z,96297.63
2022-09-24T20:51:14.591Z,96353.22
2022-09-24T20:53:41.957Z,96357.00
2022-09-24T20:56:09.351Z,96341.03
2022-09-24T20:58:41.869Z,96314.81
2022-09-24T21:01:09.238Z,96283.13
2022-09-24T21:03:45.295Z,96309.75
2022-09-24T21:06:12.565Z,96203.88
2022-09-24T21:08:40.420Z,96341.66
2022-09-24T21:11:11.769Z,96300.56
2022-09-24T21:13:50.340Z,96349.78
2022-09-24T21:16:24.720Z,96304.06
2022-09-24T21:18:54.274Z,96291.69
2022-09-24T21:21:22.669Z,96322.94
2022-09-24T21:23:50.677Z,96309.94
2022-09-24T21:26:37.832Z,96306.00
2022-09-24T21:29:07.685Z,96373.63
2022-09-24T21:31:34.538Z,96323.59
2022-09-24T21:34:01.301Z,96307.47
2022-09-24T21:36:29.460Z,96354.28
2022-09-24T21:38:56.838Z,96378.38
2022-09-24T21:41:24.779Z,96312.75
2022-09-24T21:43:52.379Z,96284.22
2022-09-24T21:46:33.284Z,96289.50
2022-09-24T21:49:00.564Z,96128.53
2022-09-24T21:51:27.478Z,96269.00
2022-09-24T21:53:58.303Z,96277.91
2022-09-24T21:56:25.044Z,96357.06
2022-09-24T21:58:52.514Z,96240.41
2022-09-24T22:01:21.011Z,96262.25
2022-09-24T22:03:47.726Z,96322.69
2022-09-24T22:06:15.109Z,96295.72
2022-09-24T22:08:41.774Z,96336.56
2022-09-24T22:11:08.932Z,96316.56
2022-09-24T22:13:46.162Z,96368.84
2022-09-24T22:16:15.491Z,96195.03
2022-09-24T22:18:50.116Z,96166.97
2022-09-24T22:21:20.196Z,96121.22
2022-09-24T22:23:46.798Z,95920.97
2022-09-24T22:26:14.765Z,96324.53
2022-09-24T22:28:41.974Z,96308.16
2022-09-24T22:31:10.089Z,96305.84
2022-09-24T22:33:55.295Z,96336.94
2022-09-24T22:36:22.052Z,96296.47
2022-09-24T22:38:53.646Z,96363.44
2022-09-24T22:41:20.251Z,96332.56
2022-09-24T22:43:46.835Z,96312.13
2022-09-24T22:46:14.190Z,96317.00
2022-09-24T22:48:40.832Z,96232.22
2022-09-24T22:51:07.564Z,96178.63
2022-09-24T22:53:35.175Z,96241.81
2022-09-24T22:56:08.290Z,96071.31
2022-09-24T22:58:35.313Z,96294.38
2022-09-24T23:01:09.640Z,96332.88
2022-09-24T23:03:36.787Z,96302.13
2022-09-24T23:06:06.217Z,96274.28
2022-09-24T23:08:33.957Z,96314.13
2022-09-24T23:11:19.511Z,96355.31
2022-09-24T23:13:47.771Z,96316.47
2022-09-24T23:16:15.051Z,96359.97
2022-09-24T23:18:42.825Z,96321.00
2022-09-24T23:21:10.854Z,96273.09
2022-09-24T23:23:37.506Z,96288.22
2022-09-24T23:26:16.190Z,96269.09
2022-09-24T23:28:43.498Z,96247.31
2022-09-24T23:31:14.581Z,96317.97
2022-09-24T23:33:42.158Z,96236.25
2022-09-24T23:36:09.945Z,96235.16
2022-09-24T23:38:36.679Z,96317.41
2022-09-24T23:41:03.713Z,96328.16
2022-09-24T23:43:30.766Z,96237.56
2022-09-24T23:45:57.475Z,96285.63
2022-09-24T23:48:24.182Z,96291.97
2022-09-24T23:50:51.288Z,96211.09
2022-09-24T23:53:18.989Z,96267.47
2022-09-24T23:55:47.074Z,96209.31
2022-09-24T23:58:15.955Z,96302.16
